sensor_id;sensor_type;location;lat;lon;timestamp;P1;durP1;ratioP1;P2;durP2;ratioP2
49834;SDS011;35729;52.090;13.162;2023-06-22T00:00:38;14.32;;;12.90;;
49834;SDS011;35729;52.090;13.162;2023-06-22T00:03:07;15.43;;;13.65;;
49834;SDS011;35729;52.090;13.162;2023-06-22T00:05:36;14.90;;;13.30;;
49834;SDS011;35729;52.090;13.162;2023-06-22T00:08:04;15.32;;;11.90;;
49834;SDS011;35729;52.090;13.162;2023-06-22T00:10:33;14.10;;;12.65;;
49834;SDS011;35729;52.090;13.162;2023-06-22T00:13:01;14.35;;;12.90;;
49834;SDS011;35729;52.090;13.162;2023-06-22T00:15:32;14.38;;;12.80;;
49834;SDS011;35729;52.090;13.162;2023-06-22T00:18:01;14.07;;;12.60;;
49834;SDS011;35729;52.090;13.162;2023-06-22T00:20:30;14.15;;;12.50;;
49834;SDS011;35729;52.090;13.162;2023-06-22T00:23:02;13.77;;;12.48;;
49834;SDS011;35729;52.090;13.162;2023-06-22T00:25:33;13.63;;;12.10;;
49834;SDS011;35729;52.090;13.162;2023-06-22T00:28:01;16.60;;;14.88;;
49834;SDS011;35729;52.090;13.162;2023-06-22T00:30:32;17.65;;;15.95;;
49834;SDS011;35729;52.090;13.162;2023-06-22T00:33:01;16.58;;;14.93;;
49834;SDS011;35729;52.090;13.162;2023-06-22T00:35:32;16.17;;;14.68;;
49834;SDS011;35729;52.090;13.162;2023-06-22T00:38:01;17.50;;;15.52;;
49834;SDS011;35729;52.090;13.162;2023-06-22T00:40:30;17.10;;;15.45;;
49834;SDS011;35729;52.090;13.162;2023-06-22T00:43:00;18.23;;;16.30;;
49834;SDS011;35729;52.090;13.162;2023-06-22T00:45:28;18.05;;;15.55;;
49834;SDS011;35729;52.090;13.162;2023-06-22T00:47:59;17.45;;;15.65;;
49834;SDS011;35729;52.090;13.162;2023-06-22T00:50:29;18.10;;;16.37;;
49834;SDS011;35729;52.090;13.162;2023-06-22T00:53:02;16.75;;;15.05;;
49834;SDS011;35729;52.090;13.162;2023-06-22T00:55:33;19.75;;;16.75;;
49834;SDS011;35729;52.090;13.162;2023-06-22T00:58:04;17.73;;;16.00;;
49834;SDS011;35729;52.090;13.162;2023-06-22T01:00:35;16.73;;;15.13;;
49834;SDS011;35729;52.090;13.162;2023-06-22T01:03:13;17.17;;;15.50;;
49834;SDS011;35729;52.090;13.162;2023-06-22T01:05:42;16.83;;;15.23;;
49834;SDS011;35729;52.090;13.162;2023-06-22T01:08:14;18.23;;;16.52;;
49834;SDS011;35729;52.090;13.162;2023-06-22T01:10:52;17.40;;;15.68;;
49834;SDS011;35729;52.090;13.162;2023-06-22T01:13:27;17.58;;;15.77;;
49834;SDS011;35729;52.090;13.162;2023-06-22T01:16:01;17.75;;;15.95;;
49834;SDS011;35729;52.090;13.162;2023-06-22T01:18:35;17.13;;;15.52;;
49834;SDS011;35729;52.090;13.162;2023-06-22T01:21:08;18.02;;;16.23;;
49834;SDS011;35729;52.090;13.162;2023-06-22T01:23:47;19.45;;;17.55;;
49834;SDS011;35729;52.090;13.162;2023-06-22T01:26:25;18.70;;;16.77;;
49834;SDS011;35729;52.090;13.162;2023-06-22T01:29:05;17.60;;;15.80;;
49834;SDS011;35729;52.090;13.162;2023-06-22T01:31:37;18.02;;;16.10;;
49834;SDS011;35729;52.090;13.162;2023-06-22T01:34:08;19.80;;;17.90;;
49834;SDS011;35729;52.090;13.162;2023-06-22T01:36:38;18.42;;;16.55;;
49834;SDS011;35729;52.090;13.162;2023-06-22T01:39:07;18.45;;;16.58;;
49834;SDS011;35729;52.090;13.162;2023-06-22T01:41:37;19.55;;;17.52;;
49834;SDS011;35729;52.090;13.162;2023-06-22T01:44:09;19.55;;;17.48;;
49834;SDS011;35729;52.090;13.162;2023-06-22T01:46:39;19.15;;;17.23;;
49834;SDS011;35729;52.090;13.162;2023-06-22T01:49:08;19.42;;;17.48;;
49834;SDS011;35729;52.090;13.162;2023-06-22T01:51:37;18.85;;;16.85;;
49834;SDS011;35729;52.090;13.162;2023-06-22T01:54:06;19.50;;;17.42;;
49834;SDS011;35729;52.090;13.162;2023-06-22T01:56:35;18.55;;;16.75;;
49834;SDS011;35729;52.090;13.162;2023-06-22T01:59:04;18.45;;;16.55;;
49834;SDS011;35729;52.090;13.162;2023-06-22T02:01:42;17.95;;;16.25;;
49834;SDS011;35729;52.090;13.162;2023-06-22T02:04:13;18.10;;;16.20;;
49834;SDS011;35729;52.090;13.162;2023-06-22T02:06:46;18.60;;;16.75;;
49834;SDS011;35729;52.090;13.162;2023-06-22T02:09:19;17.20;;;15.50;;
49834;SDS011;35729;52.090;13.162;2023-06-22T02:11:50;18.17;;;16.23;;
49834;SDS011;35729;52.090;13.162;2023-06-22T02:14:23;17.67;;;16.15;;
49834;SDS011;35729;52.090;13.162;2023-06-22T02:16:55;17.15;;;15.48;;
49834;SDS011;35729;52.090;13.162;2023-06-22T02:19:26;18.33;;;16.57;;
49834;SDS011;35729;52.090;13.162;2023-06-22T02:21:58;18.17;;;16.37;;
49834;SDS011;35729;52.090;13.162;2023-06-22T02:24:26;18.17;;;16.48;;
49834;SDS011;35729;52.090;13.162;2023-06-22T02:26:57;17.30;;;15.55;;
49834;SDS011;35729;52.090;13.162;2023-06-22T02:29:32;16.95;;;15.30;;
49834;SDS011;35729;52.090;13.162;2023-06-22T02:32:03;17.52;;;15.93;;
49834;SDS011;35729;52.090;13.162;2023-06-22T02:34:32;17.00;;;15.38;;
49834;SDS011;35729;52.090;13.162;2023-06-22T02:37:01;16.42;;;14.82;;
49834;SDS011;35729;52.090;13.162;2023-06-22T02:39:30;18.48;;;16.65;;
49834;SDS011;35729;52.090;13.162;2023-06-22T02:41:59;17.77;;;16.05;;
49834;SDS011;35729;52.090;13.162;2023-06-22T02:44:28;17.65;;;15.95;;
49834;SDS011;35729;52.090;13.162;2023-06-22T02:46:56;17.55;;;15.85;;
49834;SDS011;35729;52.090;13.162;2023-06-22T02:49:27;18.67;;;16.67;;
49834;SDS011;35729;52.090;13.162;2023-06-22T02:51:57;18.00;;;16.17;;
49834;SDS011;35729;52.090;13.162;2023-06-22T02:54:25;19.17;;;17.15;;
49834;SDS011;35729;52.090;13.162;2023-06-22T02:56:53;18.23;;;16.45;;
49834;SDS011;35729;52.090;13.162;2023-06-22T02:59:22;18.23;;;16.42;;
49834;SDS011;35729;52.090;13.162;2023-06-22T03:01:51;18.95;;;17.05;;
49834;SDS011;35729;52.090;13.162;2023-06-22T03:04:19;18.85;;;15.55;;
49834;SDS011;35729;52.090;13.162;2023-06-22T03:06:50;18.15;;;16.52;;
49834;SDS011;35729;52.090;13.162;2023-06-22T03:09:19;19.38;;;17.48;;
49834;SDS011;35729;52.090;13.162;2023-06-22T03:11:48;18.25;;;16.45;;
49834;SDS011;35729;52.090;13.162;2023-06-22T03:14:16;19.88;;;17.77;;
49834;SDS011;35729;52.090;13.162;2023-06-22T03:16:45;19.33;;;17.33;;
49834;SDS011;35729;52.090;13.162;2023-06-22T03:19:13;19.35;;;17.10;;
49834;SDS011;35729;52.090;13.162;2023-06-22T03:21:42;18.83;;;16.92;;
49834;SDS011;35729;52.090;13.162;2023-06-22T03:24:13;18.95;;;17.02;;
49834;SDS011;35729;52.090;13.162;2023-06-22T03:26:41;17.98;;;16.13;;
49834;SDS011;35729;52.090;13.162;2023-06-22T03:29:11;20.23;;;18.30;;
49834;SDS011;35729;52.090;13.162;2023-06-22T03:31:40;19.65;;;17.65;;
49834;SDS011;35729;52.090;13.162;2023-06-22T03:34:09;19.73;;;17.65;;
49834;SDS011;35729;52.090;13.162;2023-06-22T03:36:37;19.42;;;17.42;;
49834;SDS011;35729;52.090;13.162;2023-06-22T03:39:06;18.98;;;17.02;;
49834;SDS011;35729;52.090;13.162;2023-06-22T03:41:37;18.23;;;16.52;;
49834;SDS011;35729;52.090;13.162;2023-06-22T03:44:05;20.13;;;17.40;;
49834;SDS011;35729;52.090;13.162;2023-06-22T03:46:37;20.65;;;18.55;;
49834;SDS011;35729;52.090;13.162;2023-06-22T03:49:06;19.90;;;18.00;;
49834;SDS011;35729;52.090;13.162;2023-06-22T03:51:35;20.30;;;18.20;;
49834;SDS011;35729;52.090;13.162;2023-06-22T03:54:04;20.20;;;18.05;;
49834;SDS011;35729;52.090;13.162;2023-06-22T03:56:32;20.05;;;17.70;;
49834;SDS011;35729;52.090;13.162;2023-06-22T03:59:03;18.85;;;17.05;;
49834;SDS011;35729;52.090;13.162;2023-06-22T04:01:32;20.38;;;18.35;;
49834;SDS011;35729;52.090;13.162;2023-06-22T04:04:00;20.88;;;18.13;;
49834;SDS011;35729;52.090;13.162;2023-06-22T04:06:29;19.02;;;17.10;;
49834;SDS011;35729;52.090;13.162;2023-06-22T04:08:59;20.52;;;18.45;;
49834;SDS011;35729;52.090;13.162;2023-06-22T04:11:28;20.98;;;18.77;;
49834;SDS011;35729;52.090;13.162;2023-06-22T04:13:56;21.25;;;19.23;;
49834;SDS011;35729;52.090;13.162;2023-06-22T04:16:27;22.63;;;20.38;;
49834;SDS011;35729;52.090;13.162;2023-06-22T04:18:56;25.58;;;22.77;;
49834;SDS011;35729;52.090;13.162;2023-06-22T04:21:24;25.40;;;20.98;;
49834;SDS011;35729;52.090;13.162;2023-06-22T04:23:53;21.85;;;19.55;;
49834;SDS011;35729;52.090;13.162;2023-06-22T04:26:21;19.75;;;17.95;;
49834;SDS011;35729;52.090;13.162;2023-06-22T04:28:50;20.33;;;18.17;;
49834;SDS011;35729;52.090;13.162;2023-06-22T04:31:20;23.05;;;19.13;;
49834;SDS011;35729;52.090;13.162;2023-06-22T04:33:59;19.88;;;17.98;;
49834;SDS011;35729;52.090;13.162;2023-06-22T04:36:35;19.45;;;17.60;;
49834;SDS011;35729;52.090;13.162;2023-06-22T04:39:05;19.73;;;17.77;;
49834;SDS011;35729;52.090;13.162;2023-06-22T04:41:35;20.75;;;17.35;;
49834;SDS011;35729;52.090;13.162;2023-06-22T04:44:09;20.27;;;18.35;;
49834;SDS011;35729;52.090;13.162;2023-06-22T04:46:38;19.05;;;17.25;;
49834;SDS011;35729;52.090;13.162;2023-06-22T04:49:10;19.92;;;17.90;;
49834;SDS011;35729;52.090;13.162;2023-06-22T04:51:41;19.17;;;17.38;;
49834;SDS011;35729;52.090;13.162;2023-06-22T04:54:10;19.90;;;17.95;;
49834;SDS011;35729;52.090;13.162;2023-06-22T04:56:39;19.45;;;17.55;;
49834;SDS011;35729;52.090;13.162;2023-06-22T04:59:07;20.25;;;18.35;;
49834;SDS011;35729;52.090;13.162;2023-06-22T05:01:38;20.90;;;18.70;;
49834;SDS011;35729;52.090;13.162;2023-06-22T05:04:06;19.13;;;17.33;;
49834;SDS011;35729;52.090;13.162;2023-06-22T05:06:37;19.13;;;17.27;;
49834;SDS011;35729;52.090;13.162;2023-06-22T05:09:06;19.27;;;17.25;;
49834;SDS011;35729;52.090;13.162;2023-06-22T05:11:35;19.08;;;17.10;;
49834;SDS011;35729;52.090;13.162;2023-06-22T05:14:03;19.55;;;17.73;;
49834;SDS011;35729;52.090;13.162;2023-06-22T05:16:32;19.48;;;17.77;;
49834;SDS011;35729;52.090;13.162;2023-06-22T05:19:01;19.25;;;17.45;;
49834;SDS011;35729;52.090;13.162;2023-06-22T05:21:30;19.10;;;17.40;;
49834;SDS011;35729;52.090;13.162;2023-06-22T05:24:01;18.95;;;16.90;;
49834;SDS011;35729;52.090;13.162;2023-06-22T05:26:30;18.83;;;17.02;;
49834;SDS011;35729;52.090;13.162;2023-06-22T05:29:00;17.38;;;15.57;;
49834;SDS011;35729;52.090;13.162;2023-06-22T05:31:30;17.77;;;16.08;;
49834;SDS011;35729;52.090;13.162;2023-06-22T05:33:58;17.73;;;15.93;;
49834;SDS011;35729;52.090;13.162;2023-06-22T05:36:27;16.95;;;15.25;;
49834;SDS011;35729;52.090;13.162;2023-06-22T05:38:56;18.67;;;16.05;;
49834;SDS011;35729;52.090;13.162;2023-06-22T05:41:27;17.40;;;15.52;;
49834;SDS011;35729;52.090;13.162;2023-06-22T05:43:56;17.95;;;16.27;;
49834;SDS011;35729;52.090;13.162;2023-06-22T05:46:24;21.75;;;16.15;;
49834;SDS011;35729;52.090;13.162;2023-06-22T05:48:53;18.17;;;15.15;;
49834;SDS011;35729;52.090;13.162;2023-06-22T05:51:21;16.90;;;15.25;;
49834;SDS011;35729;52.090;13.162;2023-06-22T05:53:50;16.50;;;14.80;;
49834;SDS011;35729;52.090;13.162;2023-06-22T05:56:18;16.63;;;14.98;;
49834;SDS011;35729;52.090;13.162;2023-06-22T05:58:49;17.15;;;15.50;;
49834;SDS011;35729;52.090;13.162;2023-06-22T06:01:18;17.77;;;15.90;;
49834;SDS011;35729;52.090;13.162;2023-06-22T06:03:46;17.33;;;15.55;;
49834;SDS011;35729;52.090;13.162;2023-06-22T06:06:15;17.05;;;15.45;;
49834;SDS011;35729;52.090;13.162;2023-06-22T06:08:45;17.15;;;15.38;;
49834;SDS011;35729;52.090;13.162;2023-06-22T06:11:20;17.05;;;15.35;;
49834;SDS011;35729;52.090;13.162;2023-06-22T06:13:52;17.80;;;16.20;;
49834;SDS011;35729;52.090;13.162;2023-06-22T06:16:20;17.08;;;15.48;;
49834;SDS011;35729;52.090;13.162;2023-06-22T06:18:49;16.77;;;14.32;;
49834;SDS011;35729;52.090;13.162;2023-06-22T06:21:19;17.25;;;15.73;;
49834;SDS011;35729;52.090;13.162;2023-06-22T06:23:48;17.63;;;16.08;;
49834;SDS011;35729;52.090;13.162;2023-06-22T06:26:18;19.58;;;15.70;;
49834;SDS011;35729;52.090;13.162;2023-06-22T06:28:55;17.13;;;15.48;;
49834;SDS011;35729;52.090;13.162;2023-06-22T06:31:25;17.20;;;15.45;;
49834;SDS011;35729;52.090;13.162;2023-06-22T06:33:54;16.58;;;15.05;;
49834;SDS011;35729;52.090;13.162;2023-06-22T06:36:23;16.45;;;14.85;;
49834;SDS011;35729;52.090;13.162;2023-06-22T06:38:51;15.73;;;14.13;;
49834;SDS011;35729;52.090;13.162;2023-06-22T06:41:20;15.10;;;13.80;;
49834;SDS011;35729;52.090;13.162;2023-06-22T06:43:49;16.33;;;14.68;;
49834;SDS011;35729;52.090;13.162;2023-06-22T06:46:20;16.10;;;14.40;;
49834;SDS011;35729;52.090;13.162;2023-06-22T06:48:48;16.95;;;15.30;;
49834;SDS011;35729;52.090;13.162;2023-06-22T06:51:17;16.75;;;14.98;;
49834;SDS011;35729;52.090;13.162;2023-06-22T06:53:45;21.77;;;19.52;;
49834;SDS011;35729;52.090;13.162;2023-06-22T06:56:14;23.75;;;20.23;;
49834;SDS011;35729;52.090;13.162;2023-06-22T06:58:42;16.77;;;15.05;;
49834;SDS011;35729;52.090;13.162;2023-06-22T07:01:11;19.08;;;17.08;;
49834;SDS011;35729;52.090;13.162;2023-06-22T07:03:42;20.73;;;17.42;;
49834;SDS011;35729;52.090;13.162;2023-06-22T07:06:10;16.50;;;14.90;;
49834;SDS011;35729;52.090;13.162;2023-06-22T07:08:39;16.50;;;14.90;;
49834;SDS011;35729;52.090;13.162;2023-06-22T07:11:08;16.30;;;14.65;;
49834;SDS011;35729;52.090;13.162;2023-06-22T07:13:36;15.60;;;14.30;;
49834;SDS011;35729;52.090;13.162;2023-06-22T07:16:05;16.08;;;14.35;;
49834;SDS011;35729;52.090;13.162;2023-06-22T07:18:33;16.35;;;14.85;;
49834;SDS011;35729;52.090;13.162;2023-06-22T07:21:04;15.38;;;13.85;;
49834;SDS011;35729;52.090;13.162;2023-06-22T07:23:33;15.57;;;14.07;;
49834;SDS011;35729;52.090;13.162;2023-06-22T07:26:01;14.32;;;13.02;;
49834;SDS011;35729;52.090;13.162;2023-06-22T07:28:31;14.20;;;13.00;;
49834;SDS011;35729;52.090;13.162;2023-06-22T07:31:02;17.25;;;15.38;;
49834;SDS011;35729;52.090;13.162;2023-06-22T07:33:31;14.20;;;12.85;;
49834;SDS011;35729;52.090;13.162;2023-06-22T07:35:59;15.30;;;13.65;;
49834;SDS011;35729;52.090;13.162;2023-06-22T07:38:35;13.95;;;12.13;;
49834;SDS011;35729;52.090;13.162;2023-06-22T07:41:03;13.20;;;12.00;;
49834;SDS011;35729;52.090;13.162;2023-06-22T07:43:32;12.20;;;10.98;;
49834;SDS011;35729;52.090;13.162;2023-06-22T07:46:02;12.35;;;11.15;;
49834;SDS011;35729;52.090;13.162;2023-06-22T07:48:30;13.35;;;11.73;;
49834;SDS011;35729;52.090;13.162;2023-06-22T07:50:59;12.57;;;10.45;;
49834;SDS011;35729;52.090;13.162;2023-06-22T07:53:27;12.18;;;10.80;;
49834;SDS011;35729;52.090;13.162;2023-06-22T07:55:58;11.23;;;10.23;;
49834;SDS011;35729;52.090;13.162;2023-06-22T07:58:32;11.70;;;10.60;;
49834;SDS011;35729;52.090;13.162;2023-06-22T08:01:01;11.95;;;10.75;;
49834;SDS011;35729;52.090;13.162;2023-06-22T08:03:29;11.70;;;10.60;;
49834;SDS011;35729;52.090;13.162;2023-06-22T08:05:58;12.27;;;11.18;;
49834;SDS011;35729;52.090;13.162;2023-06-22T08:08:26;13.00;;;11.70;;
49834;SDS011;35729;52.090;13.162;2023-06-22T08:10:54;13.02;;;11.80;;
49834;SDS011;35729;52.090;13.162;2023-06-22T08:13:26;12.52;;;11.32;;
49834;SDS011;35729;52.090;13.162;2023-06-22T08:15:54;12.55;;;11.25;;
49834;SDS011;35729;52.090;13.162;2023-06-22T08:18:23;11.93;;;10.68;;
49834;SDS011;35729;52.090;13.162;2023-06-22T08:20:51;13.90;;;11.95;;
49834;SDS011;35729;52.090;13.162;2023-06-22T08:23:20;13.65;;;11.35;;
49834;SDS011;35729;52.090;13.162;2023-06-22T08:25:48;12.07;;;10.90;;
49834;SDS011;35729;52.090;13.162;2023-06-22T08:28:17;12.93;;;11.60;;
49834;SDS011;35729;52.090;13.162;2023-06-22T08:30:48;11.35;;;10.35;;
49834;SDS011;35729;52.090;13.162;2023-06-22T08:33:16;11.70;;;10.70;;
49834;SDS011;35729;52.090;13.162;2023-06-22T08:35:48;10.93;;;9.82;;
49834;SDS011;35729;52.090;13.162;2023-06-22T08:38:17;11.40;;;10.32;;
49834;SDS011;35729;52.090;13.162;2023-06-22T08:40:45;11.60;;;10.43;;
49834;SDS011;35729;52.090;13.162;2023-06-22T08:43:14;12.00;;;10.95;;
49834;SDS011;35729;52.090;13.162;2023-06-22T08:45:42;11.68;;;10.68;;
49834;SDS011;35729;52.090;13.162;2023-06-22T08:48:13;11.13;;;10.02;;
49834;SDS011;35729;52.090;13.162;2023-06-22T08:50:42;10.95;;;9.90;;
49834;SDS011;35729;52.090;13.162;2023-06-22T08:53:10;11.60;;;9.90;;
49834;SDS011;35729;52.090;13.162;2023-06-22T08:55:39;10.07;;;9.07;;
49834;SDS011;35729;52.090;13.162;2023-06-22T08:58:07;10.88;;;9.77;;
49834;SDS011;35729;52.090;13.162;2023-06-22T09:00:36;10.13;;;9.23;;
49834;SDS011;35729;52.090;13.162;2023-06-22T09:03:04;10.77;;;9.70;;
49834;SDS011;35729;52.090;13.162;2023-06-22T09:05:36;11.00;;;9.85;;
49834;SDS011;35729;52.090;13.162;2023-06-22T09:08:05;11.88;;;9.52;;
49834;SDS011;35729;52.090;13.162;2023-06-22T09:10:34;9.93;;;8.98;;
49834;SDS011;35729;52.090;13.162;2023-06-22T09:13:02;9.27;;;8.30;;
49834;SDS011;35729;52.090;13.162;2023-06-22T09:15:31;9.05;;;8.15;;
49834;SDS011;35729;52.090;13.162;2023-06-22T09:17:59;10.00;;;9.00;;
49834;SDS011;35729;52.090;13.162;2023-06-22T09:20:28;10.30;;;8.98;;
49834;SDS011;35729;52.090;13.162;2023-06-22T09:22:59;9.27;;;8.30;;
49834;SDS011;35729;52.090;13.162;2023-06-22T09:25:28;9.23;;;8.35;;
49834;SDS011;35729;52.090;13.162;2023-06-22T09:27:56;9.35;;;8.48;;
49834;SDS011;35729;52.090;13.162;2023-06-22T09:30:25;8.95;;;8.15;;
49834;SDS011;35729;52.090;13.162;2023-06-22T09:32:54;9.93;;;8.93;;
49834;SDS011;35729;52.090;13.162;2023-06-22T09:35:22;9.90;;;9.02;;
49834;SDS011;35729;52.090;13.162;2023-06-22T09:37:50;9.38;;;8.48;;
49834;SDS011;35729;52.090;13.162;2023-06-22T09:40:22;9.05;;;8.15;;
49834;SDS011;35729;52.090;13.162;2023-06-22T09:42:50;8.80;;;7.57;;
49834;SDS011;35729;52.090;13.162;2023-06-22T09:45:19;8.65;;;7.72;;
49834;SDS011;35729;52.090;13.162;2023-06-22T09:47:47;8.32;;;7.47;;
49834;SDS011;35729;52.090;13.162;2023-06-22T09:50:15;8.75;;;7.85;;
49834;SDS011;35729;52.090;13.162;2023-06-22T09:52:44;11.20;;;8.10;;
49834;SDS011;35729;52.090;13.162;2023-06-22T09:55:15;8.68;;;7.85;;
49834;SDS011;35729;52.090;13.162;2023-06-22T09:57:46;8.65;;;7.85;;
49834;SDS011;35729;52.090;13.162;2023-06-22T10:00:16;7.85;;;7.15;;
49834;SDS011;35729;52.090;13.162;2023-06-22T10:02:46;8.77;;;7.53;;
49834;SDS011;35729;52.090;13.162;2023-06-22T10:05:15;9.27;;;7.95;;
49834;SDS011;35729;52.090;13.162;2023-06-22T10:07:44;8.25;;;7.45;;
49834;SDS011;35729;52.090;13.162;2023-06-22T10:10:13;7.70;;;6.88;;
49834;SDS011;35729;52.090;13.162;2023-06-22T10:12:45;8.18;;;6.85;;
49834;SDS011;35729;52.090;13.162;2023-06-22T10:15:22;8.70;;;7.60;;
49834;SDS011;35729;52.090;13.162;2023-06-22T10:17:52;7.78;;;7.05;;
49834;SDS011;35729;52.090;13.162;2023-06-22T10:20:20;8.20;;;7.38;;
49834;SDS011;35729;52.090;13.162;2023-06-22T10:22:49;7.28;;;6.63;;
49834;SDS011;35729;52.090;13.162;2023-06-22T10:25:24;9.43;;;7.55;;
49834;SDS011;35729;52.090;13.162;2023-06-22T10:27:55;8.07;;;7.28;;
49834;SDS011;35729;52.090;13.162;2023-06-22T10:30:23;9.43;;;8.45;;
49834;SDS011;35729;52.090;13.162;2023-06-22T10:32:54;8.10;;;7.30;;
49834;SDS011;35729;52.090;13.162;2023-06-22T10:35:22;8.07;;;7.28;;
49834;SDS011;35729;52.090;13.162;2023-06-22T10:37:51;7.35;;;6.75;;
49834;SDS011;35729;52.090;13.162;2023-06-22T10:40:21;8.63;;;7.63;;
49834;SDS011;35729;52.090;13.162;2023-06-22T10:42:50;8.43;;;7.20;;
49834;SDS011;35729;52.090;13.162;2023-06-22T10:45:21;7.93;;;6.80;;
49834;SDS011;35729;52.090;13.162;2023-06-22T10:47:49;8.32;;;7.53;;
49834;SDS011;35729;52.090;13.162;2023-06-22T10:50:18;8.38;;;7.57;;
49834;SDS011;35729;52.090;13.162;2023-06-22T10:52:49;8.48;;;7.22;;
49834;SDS011;35729;52.090;13.162;2023-06-22T10:55:17;7.85;;;7.15;;
49834;SDS011;35729;52.090;13.162;2023-06-22T10:57:46;8.15;;;7.47;;
49834;SDS011;35729;52.090;13.162;2023-06-22T11:00:15;8.55;;;7.68;;
49834;SDS011;35729;52.090;13.162;2023-06-22T11:02:46;8.77;;;6.82;;
49834;SDS011;35729;52.090;13.162;2023-06-22T11:05:15;8.68;;;7.85;;
49834;SDS011;35729;52.090;13.162;2023-06-22T11:07:44;8.75;;;7.90;;
49834;SDS011;35729;52.090;13.162;2023-06-22T11:10:14;7.75;;;7.05;;
49834;SDS011;35729;52.090;13.162;2023-06-22T11:12:43;8.10;;;7.07;;
49834;SDS011;35729;52.090;13.162;2023-06-22T11:15:11;7.45;;;6.75;;
49834;SDS011;35729;52.090;13.162;2023-06-22T11:17:40;7.05;;;6.45;;
49834;SDS011;35729;52.090;13.162;2023-06-22T11:20:11;7.25;;;6.65;;
49834;SDS011;35729;52.090;13.162;2023-06-22T11:22:40;7.00;;;6.30;;
49834;SDS011;35729;52.090;13.162;2023-06-22T11:25:09;9.15;;;7.68;;
49834;SDS011;35729;52.090;13.162;2023-06-22T11:27:38;7.45;;;6.38;;
49834;SDS011;35729;52.090;13.162;2023-06-22T11:30:08;10.13;;;6.47;;
49834;SDS011;35729;52.090;13.162;2023-06-22T11:32:37;7.55;;;6.75;;
49834;SDS011;35729;52.090;13.162;2023-06-22T11:35:05;7.03;;;6.43;;
49834;SDS011;35729;52.090;13.162;2023-06-22T11:37:37;8.30;;;6.93;;
49834;SDS011;35729;52.090;13.162;2023-06-22T11:40:06;7.35;;;6.70;;
49834;SDS011;35729;52.090;13.162;2023-06-22T11:42:36;6.88;;;5.93;;
49834;SDS011;35729;52.090;13.162;2023-06-22T11:45:05;7.53;;;6.85;;
49834;SDS011;35729;52.090;13.162;2023-06-22T11:47:34;8.07;;;6.18;;
49834;SDS011;35729;52.090;13.162;2023-06-22T11:50:05;7.55;;;5.90;;
49834;SDS011;35729;52.090;13.162;2023-06-22T11:52:37;6.38;;;5.60;;
49834;SDS011;35729;52.090;13.162;2023-06-22T11:55:06;6.43;;;5.75;;
49834;SDS011;35729;52.090;13.162;2023-06-22T11:57:35;7.20;;;6.55;;
49834;SDS011;35729;52.090;13.162;2023-06-22T12:00:12;6.20;;;5.65;;
49834;SDS011;35729;52.090;13.162;2023-06-22T12:02:44;6.55;;;5.95;;
49834;SDS011;35729;52.090;13.162;2023-06-22T12:05:12;6.78;;;6.15;;
49834;SDS011;35729;52.090;13.162;2023-06-22T12:07:44;8.93;;;6.35;;
49834;SDS011;35729;52.090;13.162;2023-06-22T12:10:12;8.80;;;7.60;;
49834;SDS011;35729;52.090;13.162;2023-06-22T12:12:41;6.72;;;6.13;;
49834;SDS011;35729;52.090;13.162;2023-06-22T12:15:10;6.97;;;5.93;;
49834;SDS011;35729;52.090;13.162;2023-06-22T12:17:38;5.88;;;5.38;;
49834;SDS011;35729;52.090;13.162;2023-06-22T12:20:08;7.32;;;6.40;;
49834;SDS011;35729;52.090;13.162;2023-06-22T12:22:37;6.03;;;5.50;;
49834;SDS011;35729;52.090;13.162;2023-06-22T12:25:09;5.85;;;5.35;;
49834;SDS011;35729;52.090;13.162;2023-06-22T12:27:37;6.75;;;5.63;;
49834;SDS011;35729;52.090;13.162;2023-06-22T12:30:06;6.25;;;5.65;;
49834;SDS011;35729;52.090;13.162;2023-06-22T12:32:36;5.80;;;4.97;;
49834;SDS011;35729;52.090;13.162;2023-06-22T12:35:05;6.25;;;5.65;;
49834;SDS011;35729;52.090;13.162;2023-06-22T12:37:38;6.20;;;5.60;;
49834;SDS011;35729;52.090;13.162;2023-06-22T12:40:10;5.68;;;5.18;;
49834;SDS011;35729;52.090;13.162;2023-06-22T12:42:39;6.93;;;5.13;;
49834;SDS011;35729;52.090;13.162;2023-06-22T12:45:08;5.20;;;4.80;;
49834;SDS011;35729;52.090;13.162;2023-06-22T12:47:37;5.20;;;4.80;;
49834;SDS011;35729;52.090;13.162;2023-06-22T12:50:06;6.45;;;5.10;;
49834;SDS011;35729;52.090;13.162;2023-06-22T12:52:36;7.05;;;5.20;;
49834;SDS011;35729;52.090;13.162;2023-06-22T12:55:10;5.30;;;4.80;;
49834;SDS011;35729;52.090;13.162;2023-06-22T12:57:38;5.78;;;5.00;;
49834;SDS011;35729;52.090;13.162;2023-06-22T13:00:07;5.60;;;5.10;;
49834;SDS011;35729;52.090;13.162;2023-06-22T13:02:38;5.68;;;5.18;;
49834;SDS011;35729;52.090;13.162;2023-06-22T13:05:07;4.93;;;4.53;;
49834;SDS011;35729;52.090;13.162;2023-06-22T13:07:36;5.50;;;4.90;;
49834;SDS011;35729;52.090;13.162;2023-06-22T13:10:05;7.18;;;4.78;;
49834;SDS011;35729;52.090;13.162;2023-06-22T13:12:37;5.13;;;4.63;;
49834;SDS011;35729;52.090;13.162;2023-06-22T13:15:06;4.95;;;4.55;;
49834;SDS011;35729;52.090;13.162;2023-06-22T13:17:35;5.20;;;4.70;;
49834;SDS011;35729;52.090;13.162;2023-06-22T13:20:04;5.45;;;4.95;;
49834;SDS011;35729;52.090;13.162;2023-06-22T13:22:35;5.95;;;5.35;;
49834;SDS011;35729;52.090;13.162;2023-06-22T13:25:05;4.90;;;4.50;;
49834;SDS011;35729;52.090;13.162;2023-06-22T13:27:39;6.10;;;4.50;;
49834;SDS011;35729;52.090;13.162;2023-06-22T13:30:08;5.35;;;4.85;;
49834;SDS011;35729;52.090;13.162;2023-06-22T13:32:37;5.00;;;4.47;;
49834;SDS011;35729;52.090;13.162;2023-06-22T13:35:07;5.93;;;4.72;;
49834;SDS011;35729;52.090;13.162;2023-06-22T13:37:36;5.22;;;4.75;;
49834;SDS011;35729;52.090;13.162;2023-06-22T13:40:05;5.50;;;5.05;;
49834;SDS011;35729;52.090;13.162;2023-06-22T13:42:35;5.65;;;5.15;;
49834;SDS011;35729;52.090;13.162;2023-06-22T13:45:06;7.07;;;4.47;;
49834;SDS011;35729;52.090;13.162;2023-06-22T13:47:35;5.88;;;5.22;;
49834;SDS011;35729;52.090;13.162;2023-06-22T13:50:05;5.70;;;4.38;;
49834;SDS011;35729;52.090;13.162;2023-06-22T13:52:34;7.82;;;5.63;;
49834;SDS011;35729;52.090;13.162;2023-06-22T13:55:02;6.18;;;5.00;;
49834;SDS011;35729;52.090;13.162;2023-06-22T13:57:32;6.25;;;4.40;;
49834;SDS011;35729;52.090;13.162;2023-06-22T14:00:01;6.00;;;4.70;;
49834;SDS011;35729;52.090;13.162;2023-06-22T14:02:33;5.20;;;4.75;;
49834;SDS011;35729;52.090;13.162;2023-06-22T14:05:01;6.38;;;4.65;;
49834;SDS011;35729;52.090;13.162;2023-06-22T14:07:31;5.78;;;4.93;;
49834;SDS011;35729;52.090;13.162;2023-06-22T14:09:59;5.80;;;4.43;;
49834;SDS011;35729;52.090;13.162;2023-06-22T14:12:28;4.55;;;4.13;;
49834;SDS011;35729;52.090;13.162;2023-06-22T14:14:57;4.97;;;4.43;;
49834;SDS011;35729;52.090;13.162;2023-06-22T14:17:25;5.65;;;3.92;;
49834;SDS011;35729;52.090;13.162;2023-06-22T14:19:56;4.60;;;4.20;;
49834;SDS011;35729;52.090;13.162;2023-06-22T14:22:25;6.28;;;4.90;;
49834;SDS011;35729;52.090;13.162;2023-06-22T14:24:54;4.82;;;4.43;;
49834;SDS011;35729;52.090;13.162;2023-06-22T14:27:23;5.10;;;4.10;;
49834;SDS011;35729;52.090;13.162;2023-06-22T14:29:52;5.50;;;4.70;;
49834;SDS011;35729;52.090;13.162;2023-06-22T14:32:21;4.97;;;4.45;;